Time;durP1;ratioP1;P1;durP2;ratioP2;P2;SDS_P1;SDS_P2;PMS_P1;PMS_P2;Temp;Humidity;BMP_temperature;BMP_pressure;BME280_temperature;BME280_humidity;BME280_pressure;Samples;Min_cycle;Max_cycle;Signal;HPM_P1;HPM_P2
2023/05/01 00:00:04;;;;;;;12.13;6.20;;;11.80;99.90;;;;;;4863910;29;20017;-93
2023/05/01 00:02:30;;;;;;;13.55;5.82;;;11.80;99.90;;;;;;4879355;29;20045;-92
2023/05/01 00:04:56;;;;;;;11.25;5.90;;;11.80;99.90;;;;;;4863179;29;20376;-93
2023/05/01 00:07:23;;;;;;;13.77;5.80;;;11.80;99.90;;;;;;4864467;29;20452;-90
2023/05/01 00:09:50;;;;;;;13.48;6.15;;;11.80;99.90;;;;;;4864507;29;20021;-90
2023/05/01 00:12:16;;;;;;;11.70;5.53;;;11.80;99.90;;;;;;4864233;29;20543;-93
2023/05/01 00:14:41;;;;;;;9.93;4.68;;;11.80;99.90;;;;;;4864878;29;20028;-94
2023/05/01 00:17:07;;;;;;;11.73;4.63;;;11.80;99.90;;;;;;4866405;29;20056;-94
2023/05/01 00:19:33;;;;;;;10.80;5.03;;;11.80;99.90;;;;;;4880700;29;20033;-91
2023/05/01 00:21:58;;;;;;;10.98;4.68;;;11.80;99.90;;;;;;4863609;29;20108;-92
2023/05/01 00:24:24;;;;;;;15.05;4.90;;;11.70;99.90;;;;;;4863802;29;20040;-92
2023/05/01 00:26:50;;;;;;;10.43;4.88;;;11.70;99.90;;;;;;4864243;29;20074;-92
2023/05/01 00:29:16;;;;;;;12.65;4.40;;;11.70;99.90;;;;;;4863575;29;20116;-92
2023/05/01 00:31:42;;;;;;;13.30;5.85;;;11.60;99.90;;;;;;4863750;29;20081;-93
2023/05/01 00:34:09;;;;;;;16.73;4.82;;;11.60;99.90;;;;;;4863652;29;20395;-92
2023/05/01 00:36:35;;;;;;;14.25;5.60;;;11.60;99.90;;;;;;4879013;29;20109;-94
2023/05/01 00:39:00;;;;;;;12.52;5.50;;;11.50;99.90;;;;;;4863439;29;20025;-92
2023/05/01 00:41:26;;;;;;;18.73;6.82;;;11.50;99.90;;;;;;4863976;29;20047;-91
2023/05/01 00:43:52;;;;;;;14.18;8.38;;;11.40;99.90;;;;;;4863891;29;20040;-93
2023/05/01 00:46:18;;;;;;;15.10;7.22;;;11.40;99.90;;;;;;4863546;29;20033;-93
2023/05/01 00:48:44;;;;;;;11.07;6.65;;;11.30;99.90;;;;;;4863754;29;20029;-92
2023/05/01 00:51:11;;;;;;;12.40;6.90;;;11.30;99.90;;;;;;4863459;29;20474;-91
2023/05/01 00:53:40;;;;;;;16.10;8.07;;;11.20;99.90;;;;;;4863458;29;20041;-92
2023/05/01 00:56:07;;;;;;;13.88;8.23;;;11.20;99.90;;;;;;4863275;29;20039;-91
2023/05/01 00:58:34;;;;;;;16.50;8.55;;;11.20;99.90;;;;;;4863388;29;20029;-91
2023/05/01 01:01:00;;;;;;;21.58;10.57;;;11.20;99.90;;;;;;4863582;29;20056;-93
2023/05/01 01:03:26;;;;;;;19.55;9.80;;;11.10;99.90;;;;;;4863143;29;20041;-93
2023/05/01 01:06:16;;;;;;;19.52;10.35;;;11.10;99.90;;;;;;4864853;29;20518;-93
2023/05/01 01:08:53;;;;;;;16.33;9.30;;;11.10;99.90;;;;;;4866098;29;20116;-95
2023/05/01 01:11:25;;;;;;;22.27;12.35;;;11.10;99.90;;;;;;4879635;29;20066;-92
2023/05/01 01:14:09;;;;;;;22.80;12.00;;;11.00;99.90;;;;;;4862338;29;20025;-93
2023/05/01 01:16:53;;;;;;;25.20;13.02;;;11.00;99.90;;;;;;4862664;29;20059;-93
2023/05/01 01:19:28;;;;;;;21.98;12.65;;;11.00;99.90;;;;;;4862738;29;20065;-92
2023/05/01 01:22:02;;;;;;;22.98;12.57;;;11.00;99.90;;;;;;4862551;29;20037;-93
2023/05/01 01:24:56;;;;;;;22.95;13.43;;;10.90;99.90;;;;;;4863373;29;20036;-94
2023/05/01 01:27:32;;;;;;;22.50;12.10;;;10.90;99.90;;;;;;4862623;29;20054;-93
2023/05/01 01:30:22;;;;;;;24.08;13.15;;;10.90;99.90;;;;;;4863083;29;20029;-92
2023/05/01 01:33:06;;;;;;;26.58;12.63;;;10.90;99.90;;;;;;4863174;29;20508;-92
2023/05/01 01:35:35;;;;;;;26.63;13.07;;;10.90;99.90;;;;;;4866963;29;20049;-91
2023/05/01 01:38:21;;;;;;;26.05;14.35;;;10.90;99.90;;;;;;4870030;29;20116;-94
2023/05/01 01:40:55;;;;;;;24.55;14.48;;;10.90;99.90;;;;;;4869831;29;20033;-92
2023/05/01 01:43:25;;;;;;;33.33;16.05;;;10.90;99.90;;;;;;4871881;29;20040;-92
2023/05/01 01:45:58;;;;;;;31.70;17.13;;;10.90;99.90;;;;;;4868347;29;20026;-92
2023/05/01 01:48:35;;;;;;;26.98;16.85;;;10.90;99.90;;;;;;4890812;29;20028;-93
2023/05/01 01:51:07;;;;;;;30.13;15.43;;;10.80;99.90;;;;;;4872548;29;20039;-92
2023/05/01 01:53:34;;;;;;;23.77;14.80;;;10.80;99.90;;;;;;4872483;29;20048;-91
2023/05/01 01:56:03;;;;;;;25.38;14.15;;;10.80;99.90;;;;;;4870754;29;20471;-93
2023/05/01 01:58:30;;;;;;;27.60;12.60;;;10.80;99.90;;;;;;4869269;29;20029;-92
2023/05/01 02:00:56;;;;;;;18.70;10.88;;;10.80;99.90;;;;;;4862702;29;20097;-93
2023/05/01 02:03:23;;;;;;;22.50;11.93;;;10.80;99.90;;;;;;4862571;29;20033;-92
2023/05/01 02:05:51;;;;;;;14.73;10.63;;;10.70;99.90;;;;;;4862197;29;20551;-93
2023/05/01 02:08:18;;;;;;;20.33;10.60;;;10.80;99.90;;;;;;4862564;29;20033;-91
2023/05/01 02:10:46;;;;;;;23.75;9.43;;;10.70;99.90;;;;;;4862539;29;20032;-94
2023/05/01 02:13:13;;;;;;;22.92;9.80;;;10.70;99.90;;;;;;4864328;29;20128;-91
2023/05/01 02:15:40;;;;;;;17.27;10.02;;;10.70;99.90;;;;;;4864349;29;20036;-93
2023/05/01 02:18:07;;;;;;;20.35;9.98;;;10.70;99.90;;;;;;4863505;29;20037;-93
2023/05/01 02:20:33;;;;;;;18.55;10.07;;;10.60;99.90;;;;;;4865602;29;20383;-94
2023/05/01 02:22:59;;;;;;;16.55;9.80;;;10.70;99.90;;;;;;4865441;29;20037;-94
2023/05/01 02:25:27;;;;;;;14.68;8.27;;;10.60;99.90;;;;;;4865762;29;20032;-92
2023/05/01 02:27:58;;;;;;;14.80;9.27;;;10.60;99.90;;;;;;4867749;29;20029;-94
2023/05/01 02:30:24;;;;;;;16.88;9.15;;;10.60;99.90;;;;;;4873631;29;20033;-93
2023/05/01 02:32:50;;;;;;;12.13;7.50;;;10.60;99.90;;;;;;4872830;29;20039;-92
2023/05/01 02:35:16;;;;;;;13.00;7.72;;;10.60;99.90;;;;;;4871023;29;20049;-96
2023/05/01 02:37:43;;;;;;;14.18;7.82;;;10.60;99.90;;;;;;4872809;29;20061;-95
2023/05/01 02:40:11;;;;;;;15.20;8.00;;;10.60;99.90;;;;;;4871502;29;20025;-94
2023/05/01 02:42:38;;;;;;;15.50;7.85;;;10.60;99.90;;;;;;4868990;29;20041;-95
2023/05/01 02:45:06;;;;;;;13.15;7.13;;;10.60;99.90;;;;;;4870875;29;20040;-94
2023/05/01 02:47:36;;;;;;;13.57;7.93;;;10.70;99.90;;;;;;4872242;29;20056;-93
2023/05/01 02:50:02;;;;;;;18.50;7.30;;;10.60;99.90;;;;;;4882431;29;20054;-92
2023/05/01 02:52:29;;;;;;;17.25;7.78;;;10.70;99.90;;;;;;4887592;29;20285;-90
2023/05/01 02:54:56;;;;;;;10.70;6.60;;;10.60;99.90;;;;;;4877338;29;20044;-93
2023/05/01 02:57:21;;;;;;;16.42;6.82;;;10.60;99.90;;;;;;4881689;29;20044;-92
2023/05/01 02:59:47;;;;;;;11.07;7.13;;;10.60;99.90;;;;;;4889283;29;20388;-92
2023/05/01 03:02:14;;;;;;;13.38;6.13;;;10.50;99.90;;;;;;4889012;29;20036;-93
2023/05/01 03:04:41;;;;;;;13.15;6.65;;;10.50;99.90;;;;;;4880031;29;20483;-94
2023/05/01 03:07:07;;;;;;;14.52;7.25;;;10.50;99.90;;;;;;4877009;29;20029;-92
2023/05/01 03:09:32;;;;;;;12.80;7.70;;;10.50;99.90;;;;;;4874684;29;20040;-93
2023/05/01 03:11:58;;;;;;;13.43;6.75;;;10.50;99.90;;;;;;4876191;29;20033;-94
2023/05/01 03:14:24;;;;;;;15.60;8.07;;;10.50;99.90;;;;;;4880097;29;20040;-95
2023/05/01 03:16:49;;;;;;;12.05;7.43;;;10.50;99.90;;;;;;4863443;29;20123;-94
2023/05/01 03:19:15;;;;;;;16.98;6.90;;;10.50;99.90;;;;;;4877853;29;20033;-94
2023/05/01 03:21:41;;;;;;;9.05;6.22;;;10.50;99.90;;;;;;4894129;29;20077;-93
2023/05/01 03:24:06;;;;;;;11.75;6.35;;;10.50;99.90;;;;;;4878086;29;20063;-96
2023/05/01 03:26:32;;;;;;;8.15;5.97;;;10.50;99.90;;;;;;4895587;29;20040;-95
2023/05/01 03:28:58;;;;;;;9.82;5.30;;;10.40;99.90;;;;;;4880791;29;20033;-94
2023/05/01 03:31:24;;;;;;;9.93;5.85;;;10.40;99.90;;;;;;4881682;29;20100;-93
2023/05/01 03:33:50;;;;;;;9.55;5.78;;;10.40;99.90;;;;;;4881922;29;20325;-94
2023/05/01 03:36:16;;;;;;;10.73;5.80;;;10.40;99.90;;;;;;4881931;29;20084;-93
2023/05/01 03:38:41;;;;;;;7.10;5.57;;;10.30;99.90;;;;;;4881116;29;20026;-93
2023/05/01 03:41:08;;;;;;;16.08;6.63;;;10.30;99.90;;;;;;4878550;29;20131;-93
2023/05/01 03:43:33;;;;;;;16.63;7.43;;;10.30;99.90;;;;;;4878880;29;20041;-93
2023/05/01 03:45:59;;;;;;;13.13;7.40;;;10.30;99.90;;;;;;4879838;29;20029;-94
2023/05/01 03:48:26;;;;;;;15.20;7.90;;;10.30;99.90;;;;;;4895968;29;20094;-94
2023/05/01 03:50:52;;;;;;;13.45;7.20;;;10.30;99.90;;;;;;4879980;29;20025;-94
2023/05/01 03:53:17;;;;;;;11.95;7.07;;;10.30;99.90;;;;;;4878954;29;20029;-94
2023/05/01 03:55:43;;;;;;;12.02;6.50;;;10.30;99.90;;;;;;4877807;29;20077;-94
2023/05/01 03:58:09;;;;;;;13.57;6.43;;;10.20;99.90;;;;;;4880151;29;20071;-94
2023/05/01 04:00:36;;;;;;;10.02;6.28;;;10.20;99.90;;;;;;4880626;29;20037;-92
2023/05/01 04:03:02;;;;;;;13.93;7.05;;;10.20;99.90;;;;;;4881406;29;20040;-93
2023/05/01 04:05:29;;;;;;;12.35;6.03;;;10.20;99.90;;;;;;4897195;29;20052;-93
2023/05/01 04:07:55;;;;;;;13.30;6.45;;;10.20;99.90;;;;;;4876886;29;20033;-93
2023/05/01 04:10:21;;;;;;;12.15;6.63;;;10.20;99.90;;;;;;4878720;29;20122;-92
2023/05/01 04:12:46;;;;;;;11.15;6.85;;;10.30;99.90;;;;;;4874077;29;20021;-93
2023/05/01 04:15:12;;;;;;;11.98;7.43;;;10.30;99.90;;;;;;4873952;29;20048;-93
2023/05/01 04:17:38;;;;;;;15.85;8.02;;;10.40;99.90;;;;;;4877434;29;20040;-93
2023/05/01 04:20:05;;;;;;;25.33;9.65;;;10.30;99.90;;;;;;4879103;29;20040;-95
2023/05/01 04:22:31;;;;;;;14.95;8.10;;;10.40;99.90;;;;;;4877724;29;20044;-93
2023/05/01 04:24:57;;;;;;;17.20;9.15;;;10.40;99.90;;;;;;4879576;29;20092;-92
2023/05/01 04:27:23;;;;;;;13.52;7.97;;;10.50;99.90;;;;;;4876904;29;20510;-94
2023/05/01 04:29:49;;;;;;;16.85;8.00;;;10.40;99.90;;;;;;4868775;29;20105;-95
2023/05/01 04:32:16;;;;;;;13.82;7.57;;;10.40;99.90;;;;;;4871592;29;20061;-91
2023/05/01 04:34:43;;;;;;;17.60;9.68;;;10.40;99.90;;;;;;4876407;29;20037;-93
2023/05/01 04:37:08;;;;;;;15.82;8.85;;;10.40;99.90;;;;;;4876600;29;20035;-93
2023/05/01 04:39:35;;;;;;;19.05;8.80;;;10.40;99.90;;;;;;4872942;29;20068;-95
2023/05/01 04:42:01;;;;;;;20.25;8.93;;;10.40;99.90;;;;;;4873991;29;20464;-93
2023/05/01 04:44:27;;;;;;;16.70;7.93;;;10.40;99.90;;;;;;4872778;29;20025;-96
2023/05/01 04:46:53;;;;;;;14.00;7.95;;;10.40;99.90;;;;;;4884044;29;20027;-95
2023/05/01 04:49:20;;;;;;;13.10;6.32;;;10.40;99.90;;;;;;4871464;29;20037;-93
2023/05/01 04:51:46;;;;;;;13.35;7.53;;;10.40;99.90;;;;;;4893933;29;20021;-94
2023/05/01 04:54:11;;;;;;;20.65;9.23;;;10.30;99.90;;;;;;4895013;29;20037;-94
2023/05/01 04:56:37;;;;;;;16.92;7.40;;;10.40;99.90;;;;;;4879147;29;20100;-95
2023/05/01 04:59:02;;;;;;;14.95;8.32;;;10.40;99.90;;;;;;4877613;29;20040;-93
2023/05/01 05:01:28;;;;;;;20.15;9.07;;;10.40;99.90;;;;;;4875201;29;20036;-92
2023/05/01 05:03:54;;;;;;;22.40;9.43;;;10.40;99.90;;;;;;4873362;29;20044;-91
2023/05/01 05:06:20;;;;;;;19.95;10.13;;;10.50;99.90;;;;;;4872713;29;20060;-94
2023/05/01 05:08:46;;;;;;;17.95;9.77;;;10.50;99.90;;;;;;4886259;29;20040;-95
2023/05/01 05:11:11;;;;;;;22.23;11.00;;;10.40;99.90;;;;;;4870207;29;20033;-94
2023/05/01 05:13:37;;;;;;;19.35;10.80;;;10.50;99.90;;;;;;4876519;29;20033;-95
2023/05/01 05:16:03;;;;;;;12.25;7.82;;;10.40;99.90;;;;;;4876863;29;20048;-94
2023/05/01 05:18:29;;;;;;;22.83;11.00;;;10.40;99.90;;;;;;4875227;29;20045;-94
2023/05/01 05:20:54;;;;;;;16.70;9.73;;;10.40;99.90;;;;;;4873255;29;20029;-94
2023/05/01 05:23:20;;;;;;;19.17;10.45;;;10.50;99.90;;;;;;4877513;29;20045;-93
2023/05/01 05:25:46;;;;;;;16.05;9.32;;;10.50;99.90;;;;;;4860767;29;20021;-91
2023/05/01 05:28:11;;;;;;;17.15;7.78;;;10.50;99.90;;;;;;4872766;29;20029;-93
2023/05/01 05:30:37;;;;;;;23.15;11.30;;;10.50;99.90;;;;;;4888685;29;20112;-94
2023/05/01 05:33:04;;;;;;;21.15;11.35;;;10.50;99.90;;;;;;4868088;29;20120;-92
2023/05/01 05:35:29;;;;;;;20.77;12.00;;;10.50;99.90;;;;;;4868264;29;20162;-93
2023/05/01 05:37:55;;;;;;;23.52;12.52;;;10.50;99.90;;;;;;4866921;29;20068;-94
2023/05/01 05:40:20;;;;;;;21.33;10.80;;;10.50;99.90;;;;;;4871079;29;20036;-93
2023/05/01 05:42:46;;;;;;;18.92;9.93;;;10.50;99.90;;;;;;4870977;29;20140;-94
2023/05/01 05:45:12;;;;;;;19.38;10.70;;;10.50;99.90;;;;;;4873510;29;20035;-94
2023/05/01 05:47:38;;;;;;;18.63;10.55;;;10.50;99.90;;;;;;4873444;29;20033;-93
2023/05/01 05:50:05;;;;;;;18.05;9.88;;;10.50;99.90;;;;;;4871924;29;20021;-94
2023/05/01 05:52:30;;;;;;;20.15;12.40;;;10.50;99.90;;;;;;4889024;29;20029;-94
2023/05/01 05:54:56;;;;;;;21.73;10.80;;;10.50;99.90;;;;;;4877328;29;20029;-93
2023/05/01 05:57:22;;;;;;;15.85;8.48;;;10.50;99.90;;;;;;4881594;29;20021;-89
2023/05/01 05:59:47;;;;;;;18.40;10.30;;;10.50;99.90;;;;;;4889824;29;20089;-90
2023/05/01 06:02:13;;;;;;;18.40;10.05;;;10.50;99.90;;;;;;4887065;29;20061;-94
2023/05/01 06:04:39;;;;;;;15.15;8.38;;;10.50;99.90;;;;;;4877925;29;20029;-93
2023/05/01 06:07:05;;;;;;;15.57;7.40;;;10.50;99.90;;;;;;4873428;29;20102;-94
2023/05/01 06:09:32;;;;;;;13.27;7.57;;;10.60;99.90;;;;;;4868827;29;20036;-92
2023/05/01 06:11:57;;;;;;;14.73;7.80;;;10.50;99.90;;;;;;4870459;29;20037;-94
2023/05/01 06:14:23;;;;;;;12.15;5.88;;;10.60;99.90;;;;;;4872852;29;20053;-96
2023/05/01 06:16:49;;;;;;;12.55;6.60;;;10.60;99.90;;;;;;4872295;29;20061;-93
2023/05/01 06:19:15;;;;;;;10.45;6.32;;;10.60;99.90;;;;;;4873398;29;20025;-94
2023/05/01 06:21:41;;;;;;;9.60;5.55;;;10.60;99.90;;;;;;4875146;29;20471;-93
2023/05/01 06:24:07;;;;;;;13.45;6.03;;;10.60;99.90;;;;;;4875447;29;20368;-93
2023/05/01 06:26:33;;;;;;;12.10;5.90;;;10.60;99.90;;;;;;4873717;29;20112;-91
2023/05/01 06:28:58;;;;;;;14.32;6.72;;;10.60;99.90;;;;;;4872215;29;20064;-92
2023/05/01 06:31:25;;;;;;;10.38;5.63;;;10.60;99.90;;;;;;4871770;29;20432;-93
2023/05/01 06:33:51;;;;;;;9.18;6.03;;;10.70;99.90;;;;;;4866600;29;20025;-91
2023/05/01 06:36:18;;;;;;;13.57;5.53;;;10.70;99.90;;;;;;4865941;29;20064;-91
2023/05/01 06:38:47;;;;;;;9.30;4.72;;;10.70;99.90;;;;;;4867475;29;20551;-93
2023/05/01 06:41:14;;;;;;;12.90;5.80;;;10.70;99.90;;;;;;4865377;29;20025;-93
2023/05/01 06:43:40;;;;;;;11.77;5.45;;;10.70;99.90;;;;;;4864797;29;20037;-93
2023/05/01 06:46:06;;;;;;;10.70;5.85;;;10.70;99.90;;;;;;4865946;29;20049;-94
2023/05/01 06:48:31;;;;;;;11.77;5.00;;;10.70;99.90;;;;;;4867568;29;20036;-94
2023/05/01 06:50:57;;;;;;;10.50;4.55;;;10.70;99.90;;;;;;4865745;29;20100;-94
2023/05/01 06:53:23;;;;;;;10.80;5.35;;;10.70;99.90;;;;;;4864883;29;20518;-93
2023/05/01 06:55:50;;;;;;;12.38;5.30;;;10.70;99.90;;;;;;4867067;29;20093;-93
2023/05/01 06:58:15;;;;;;;12.05;6.30;;;10.80;99.90;;;;;;4863313;29;20029;-93
2023/05/01 07:00:41;;;;;;;9.90;5.22;;;10.80;99.90;;;;;;4881830;29;20032;-95
2023/05/01 07:03:07;;;;;;;9.07;5.57;;;10.80;99.90;;;;;;4867121;29;20463;-94
2023/05/01 07:05:32;;;;;;;9.10;4.82;;;10.80;99.90;;;;;;4865622;29;20025;-95
2023/05/01 07:08:00;;;;;;;13.02;6.10;;;10.80;99.90;;;;;;4866017;29;20456;-93
2023/05/01 07:10:25;;;;;;;11.80;5.28;;;10.90;99.90;;;;;;4865091;29;20543;-92
2023/05/01 07:12:51;;;;;;;14.13;5.82;;;10.90;99.90;;;;;;4864698;29;20124;-92
2023/05/01 07:15:17;;;;;;;10.82;5.93;;;10.90;99.90;;;;;;4880824;29;20037;-91
2023/05/01 07:17:43;;;;;;;11.60;6.22;;;10.90;99.90;;;;;;4880074;29;20064;-92
2023/05/01 07:20:12;;;;;;;11.35;7.05;;;10.90;99.90;;;;;;4864767;29;20028;-93
2023/05/01 07:22:38;;;;;;;13.20;7.35;;;10.90;99.90;;;;;;4863473;29;20045;-93
2023/05/01 07:25:04;;;;;;;14.18;7.00;;;10.90;99.90;;;;;;4865374;29;20162;-94
2023/05/01 07:27:30;;;;;;;13.02;7.03;;;10.90;99.90;;;;;;4865040;29;20037;-93
2023/05/01 07:29:56;;;;;;;12.80;6.90;;;10.90;99.90;;;;;;4867914;29;20021;-92
2023/05/01 07:32:23;;;;;;;18.80;7.32;;;10.90;99.90;;;;;;4870846;29;20029;-92
2023/05/01 07:34:49;;;;;;;16.90;7.57;;;10.90;99.90;;;;;;4875750;29;20033;-92
2023/05/01 07:37:17;;;;;;;14.27;7.72;;;10.90;99.90;;;;;;4887182;29;20024;-91
2023/05/01 07:39:43;;;;;;;14.48;6.60;;;10.90;99.90;;;;;;4884486;29;20021;-94
2023/05/01 07:42:09;;;;;;;11.02;5.80;;;11.00;99.90;;;;;;4883553;29;20148;-93
2023/05/01 07:44:35;;;;;;;14.52;5.68;;;11.00;99.90;;;;;;4864818;29;20551;-94
2023/05/01 07:47:07;;;;;;;9.30;5.50;;;11.00;99.90;;;;;;4875017;29;20055;-92
2023/05/01 07:49:37;;;;;;;10.93;5.93;;;11.10;99.90;;;;;;4872329;29;20029;-94
2023/05/01 07:52:04;;;;;;;12.25;5.90;;;11.10;99.90;;;;;;4881033;29;20037;-92
2023/05/01 07:54:30;;;;;;;13.35;5.80;;;11.10;99.90;;;;;;4885833;29;20025;-92
2023/05/01 07:56:55;;;;;;;13.38;5.88;;;11.20;99.90;;;;;;4894292;29;20035;-93
2023/05/01 07:59:21;;;;;;;18.65;6.80;;;11.20;99.90;;;;;;4881126;29;20033;-93
2023/05/01 08:01:47;;;;;;;12.75;5.68;;;11.30;99.90;;;;;;4887915;29;20033;-92
2023/05/01 08:04:13;;;;;;;9.23;4.78;;;11.40;99.90;;;;;;4881295;29;20037;-92
2023/05/01 08:06:39;;;;;;;12.68;6.13;;;11.40;99.90;;;;;;4871075;29;20502;-94
2023/05/01 08:09:05;;;;;;;8.45;4.30;;;11.50;99.90;;;;;;4876034;29;20025;-93
2023/05/01 08:11:32;;;;;;;8.38;5.20;;;11.60;99.90;;;;;;4875321;29;20040;-93
2023/05/01 08:13:58;;;;;;;5.72;3.30;;;11.70;99.90;;;;;;4874744;29;20090;-93
2023/05/01 08:16:23;;;;;;;8.75;3.28;;;11.80;99.90;;;;;;4884657;29;20016;-90
2023/05/01 08:18:49;;;;;;;12.77;5.18;;;11.90;99.90;;;;;;4879823;29;20049;-93
2023/05/01 08:21:15;;;;;;;5.95;3.13;;;12.00;99.90;;;;;;4865890;29;20045;-94
2023/05/01 08:23:40;;;;;;;5.35;3.05;;;12.00;99.90;;;;;;4884462;29;20071;-93
2023/05/01 08:26:06;;;;;;;6.90;2.63;;;12.10;99.90;;;;;;4866670;29;20048;-93
2023/05/01 08:28:34;;;;;;;7.25;2.80;;;12.10;99.90;;;;;;4865679;29;20125;-93
2023/05/01 08:31:01;;;;;;;4.00;2.33;;;12.20;99.90;;;;;;4867609;29;20025;-93
2023/05/01 08:33:26;;;;;;;6.38;3.20;;;12.30;99.90;;;;;;4867737;29;20032;-92
2023/05/01 08:35:52;;;;;;;8.52;2.80;;;12.30;99.90;;;;;;4866152;29;20049;-94
2023/05/01 08:38:18;;;;;;;7.65;3.22;;;12.30;99.90;;;;;;4880564;29;20503;-94
2023/05/01 08:40:52;;;;;;;6.65;3.10;;;12.40;99.90;;;;;;4864234;29;20057;-93
2023/05/01 08:43:18;;;;;;;3.47;2.08;;;12.30;99.90;;;;;;4862215;29;20040;-93
2023/05/01 08:45:46;;;;;;;4.72;2.20;;;12.40;99.90;;;;;;4864028;29;20238;-94
2023/05/01 08:48:14;;;;;;;3.88;2.47;;;12.50;99.90;;;;;;4864549;29;20053;-91
2023/05/01 08:50:44;;;;;;;4.55;2.60;;;12.60;99.90;;;;;;4863839;29;20086;-91
2023/05/01 08:53:12;;;;;;;6.35;2.10;;;12.70;99.90;;;;;;4863983;29;20036;-94
2023/05/01 08:55:42;;;;;;;8.55;1.92;;;12.80;99.90;;;;;;4865505;29;20037;-92
2023/05/01 08:58:11;;;;;;;2.17;1.60;;;13.00;99.90;;;;;;4870179;29;20052;-90
2023/05/01 09:00:39;;;;;;;3.80;1.50;;;13.10;99.90;;;;;;4877080;29;20028;-90
2023/05/01 09:03:06;;;;;;;4.05;1.48;;;13.30;99.90;;;;;;4872845;29;20097;-93
2023/05/01 09:05:32;;;;;;;3.72;1.45;;;13.50;99.90;;;;;;4864439;29;20487;-92
2023/05/01 09:07:59;;;;;;;3.15;2.08;;;13.50;99.90;;;;;;4863107;29;20507;-92
2023/05/01 09:10:26;;;;;;;5.57;1.85;;;13.60;99.90;;;;;;4863255;29;20081;-94
2023/05/01 09:12:57;;;;;;;4.40;1.77;;;13.60;99.90;;;;;;4863276;29;20033;-93
2023/05/01 09:15:26;;;;;;;2.65;1.40;;;13.70;99.90;;;;;;4861045;29;20025;-94
2023/05/01 09:17:53;;;;;;;3.72;1.90;;;13.70;99.90;;;;;;4863691;29;20036;-94
2023/05/01 09:20:19;;;;;;;3.22;1.95;;;13.70;99.90;;;;;;4864679;29;20025;-94
2023/05/01 09:22:45;;;;;;;5.47;1.73;;;13.80;99.90;;;;;;4864189;29;20475;-94
2023/05/01 09:25:11;;;;;;;6.95;2.30;;;13.80;99.90;;;;;;4864049;29;20041;-93
2023/05/01 09:27:37;;;;;;;3.15;1.90;;;13.80;99.90;;;;;;4866567;29;20033;-94
2023/05/01 09:30:05;;;;;;;3.88;1.50;;;14.00;99.90;;;;;;4869045;29;20028;-94
2023/05/01 09:32:31;;;;;;;3.03;1.60;;;14.20;99.90;;;;;;4867899;29;20395;-94
2023/05/01 09:35:13;;;;;;;4.95;1.98;;;14.40;99.90;;;;;;4865794;29;20045;-93
2023/05/01 09:37:40;;;;;;;3.88;1.65;;;14.70;99.90;;;;;;4868113;29;20064;-95
2023/05/01 09:40:10;;;;;;;4.20;1.95;;;14.90;99.90;;;;;;4883522;29;20029;-93
2023/05/01 09:42:48;;;;;;;4.18;1.67;;;15.10;99.90;;;;;;4864918;29;20045;-96
2023/05/01 09:45:14;;;;;;;3.25;1.90;;;15.10;99.90;;;;;;4866484;29;20029;-94
2023/05/01 09:47:42;;;;;;;5.07;1.85;;;15.20;99.90;;;;;;4883193;29;20033;-93
2023/05/01 09:50:09;;;;;;;5.53;1.60;;;15.30;99.90;;;;;;4866313;29;20387;-93
2023/05/01 09:52:35;;;;;;;3.90;1.70;;;15.50;99.90;;;;;;4866323;29;20471;-95
2023/05/01 09:55:15;;;;;;;3.22;1.50;;;15.60;99.90;;;;;;4867317;29;20036;-94
2023/05/01 09:57:46;;;;;;;4.97;1.65;;;15.80;99.90;;;;;;4866243;29;20077;-95
2023/05/01 10:00:15;;;;;;;3.20;1.20;;;16.00;99.90;;;;;;4866589;29;20044;-94
2023/05/01 10:02:45;;;;;;;1.70;1.15;;;16.20;99.90;;;;;;4870612;29;20029;-95
2023/05/01 10:05:12;;;;;;;4.40;2.25;;;16.40;99.90;;;;;;4883109;29;20131;-95
2023/05/01 10:07:55;;;;;;;3.83;1.20;;;16.60;99.90;;;;;;4882084;29;20025;-94
2023/05/01 10:10:21;;;;;;;1.95;1.10;;;16.80;99.90;;;;;;4880926;29;20124;-95
2023/05/01 10:12:48;;;;;;;2.03;1.20;;;17.00;99.90;;;;;;4867343;29;20487;-94
2023/05/01 10:15:14;;;;;;;4.78;1.33;;;17.20;99.90;;;;;;4875279;29;20028;-94
2023/05/01 10:17:42;;;;;;;6.50;1.40;;;17.40;99.90;;;;;;4873346;29;20371;-95
2023/05/01 10:20:12;;;;;;;3.53;1.50;;;17.60;99.90;;;;;;4850497;29;20025;-92
2023/05/01 10:22:43;;;;;;;2.00;1.20;;;17.70;99.90;;;;;;4868702;29;20124;-94
2023/05/01 10:25:13;;;;;;;3.15;1.10;;;17.90;99.70;;;;;;4868340;29;20032;-94
2023/05/01 10:27:40;;;;;;;2.38;1.10;;;18.00;99.10;;;;;;4867873;29;20035;-95
2023/05/01 10:30:08;;;;;;;1.92;0.90;;;18.00;98.50;;;;;;4867385;29;20025;-95
2023/05/01 10:32:35;;;;;;;2.00;0.70;;;18.00;97.20;;;;;;4864706;29;20029;-94
2023/05/01 10:35:18;;;;;;;1.13;0.70;;;18.00;95.90;;;;;;4863434;29;20136;-94
2023/05/01 10:37:55;;;;;;;2.70;1.20;;;18.00;95.40;;;;;;4863952;29;20483;-94
2023/05/01 10:40:42;;;;;;;2.58;1.33;;;18.00;95.00;;;;;;4863696;29;20037;-94
2023/05/01 10:43:27;;;;;;;2.80;0.98;;;17.90;94.20;;;;;;4880961;29;20460;-94
2023/05/01 10:46:15;;;;;;;2.17;1.10;;;17.80;93.70;;;;;;4882205;29;20112;-95
2023/05/01 10:48:41;;;;;;;4.47;1.27;;;17.70;93.30;;;;;;4857211;29;20043;-93
2023/05/01 10:51:11;;;;;;;4.68;1.40;;;17.50;92.90;;;;;;4869666;29;20029;-94
2023/05/01 10:53:41;;;;;;;3.33;1.13;;;17.30;93.00;;;;;;4876399;29;20025;-95
2023/05/01 10:56:34;;;;;;;1.30;1.10;;;17.20;93.00;;;;;;4897309;29;20269;-94
2023/05/01 10:59:04;;;;;;;2.97;0.95;;;17.00;93.40;;;;;;4884591;29;20032;-95
2023/05/01 11:01:44;;;;;;;2.53;1.25;;;16.70;93.80;;;;;;4875120;29;20136;-95
2023/05/01 11:04:19;;;;;;;2.78;1.30;;;16.50;93.80;;;;;;4877994;29;20093;-96
2023/05/01 11:07:07;;;;;;;1.13;1.00;;;16.20;93.80;;;;;;4875028;29;20053;-96
2023/05/01 11:09:53;;;;;;;2.72;0.77;;;16.00;94.20;;;;;;4875958;29;20029;-96
2023/05/01 11:12:44;;;;;;;1.02;0.80;;;15.90;94.50;;;;;;4878905;29;20050;-96
2023/05/01 11:15:31;;;;;;;1.33;1.00;;;15.80;94.90;;;;;;4889574;29;20041;-96
2023/05/01 11:18:00;;;;;;;2.40;0.70;;;15.80;95.30;;;;;;4886224;29;20017;-95
2023/05/01 11:20:25;;;;;;;1.75;0.70;;;15.90;95.80;;;;;;4873702;29;20037;-93
2023/05/01 11:22:53;;;;;;;2.05;0.90;;;16.00;95.90;;;;;;4871921;29;20100;-95
2023/05/01 11:25:19;;;;;;;2.35;0.85;;;16.00;95.70;;;;;;4871328;29;20025;-94
2023/05/01 11:27:56;;;;;;;1.70;0.88;;;16.10;95.60;;;;;;4886579;29;20043;-96
2023/05/01 11:30:22;;;;;;;2.15;0.90;;;16.20;95.50;;;;;;4869073;29;20111;-93
2023/05/01 11:32:49;;;;;;;1.63;0.60;;;16.40;95.40;;;;;;4866687;29;20025;-96
2023/05/01 11:35:25;;;;;;;2.65;0.88;;;16.70;95.00;;;;;;4882312;29;20041;-94
2023/05/01 11:37:51;;;;;;;2.65;0.88;;;16.70;94.20;;;;;;4866243;29;20439;-95
2023/05/01 11:40:22;;;;;;;2.42;1.13;;;16.80;93.80;;;;;;4883003;29;20498;-95
2023/05/01 11:42:49;;;;;;;3.42;0.47;;;16.80;93.40;;;;;;4866094;29;20132;-96
2023/05/01 11:45:15;;;;;;;1.60;0.68;;;16.80;93.00;;;;;;4867997;29;20029;-93
2023/05/01 11:47:41;;;;;;;5.28;0.80;;;16.70;92.90;;;;;;4866863;29;20486;-94
2023/05/01 11:50:08;;;;;;;1.60;0.68;;;16.80;92.40;;;;;;4866062;29;20165;-94
2023/05/01 11:52:52;;;;;;;4.00;0.63;;;16.90;91.90;;;;;;4867034;29;20029;-96
2023/05/01 11:55:30;;;;;;;2.78;0.90;;;17.20;91.30;;;;;;4866545;29;20033;-94
2023/05/01 11:57:56;;;;;;;3.03;1.05;;;17.20;90.20;;;;;;4865589;29;20025;-95
2023/05/01 12:00:42;;;;;;;3.33;0.73;;;17.20;89.50;;;;;;4884132;29;20021;-93
2023/05/01 12:03:13;;;;;;;0.82;0.50;;;17.20;88.70;;;;;;4897878;29;20124;-96
2023/05/01 12:05:43;;;;;;;3.17;0.80;;;17.10;88.80;;;;;;4866064;29;20029;-93
2023/05/01 12:08:14;;;;;;;1.42;0.80;;;17.00;89.40;;;;;;4866014;29;20059;-93
2023/05/01 12:10:42;;;;;;;2.55;1.63;;;17.00;89.80;;;;;;4868746;29;20033;-95
2023/05/01 12:13:10;;;;;;;1.80;0.80;;;16.90;89.50;;;;;;4873741;29;20098;-94
2023/05/01 12:15:39;;;;;;;2.65;0.80;;;16.80;90.00;;;;;;4866129;29;20025;-95
2023/05/01 12:18:05;;;;;;;1.00;0.70;;;16.80;90.40;;;;;;4866061;29;20028;-93
2023/05/01 12:20:41;;;;;;;3.53;1.13;;;16.70;90.50;;;;;;4867950;29;20037;-95
2023/05/01 12:23:12;;;;;;;2.00;0.90;;;16.60;90.70;;;;;;4881979;29;20093;-95
2023/05/01 12:25:39;;;;;;;1.83;0.82;;;16.50;91.10;;;;;;4865815;29;20067;-94
2023/05/01 12:28:13;;;;;;;2.38;1.08;;;16.50;91.90;;;;;;4865345;29;20061;-95
2023/05/01 12:30:39;;;;;;;4.85;1.20;;;16.40;91.90;;;;;;4865228;29;20039;-96
2023/05/01 12:33:09;;;;;;;2.35;0.90;;;16.30;92.00;;;;;;4865108;29;20033;-94
2023/05/01 12:35:35;;;;;;;0.80;0.80;;;16.20;92.40;;;;;;4865183;29;20052;-94
2023/05/01 12:38:15;;;;;;;1.95;0.50;;;16.10;92.60;;;;;;4865381;29;20053;-94
2023/05/01 12:40:50;;;;;;;1.05;0.52;;;16.10;92.90;;;;;;4868670;29;20093;-94
2023/05/01 12:43:16;;;;;;;1.67;0.60;;;16.10;93.10;;;;;;4880564;29;20041;-89
2023/05/01 12:45:42;;;;;;;1.25;0.70;;;16.20;92.90;;;;;;4880653;29;20116;-94